Perseverance — WDD5594 — position and weather

sailwx.info

Track history (hours):
 
Tides and Currents Weather Stations Pressure Air Temp Water Temp Dewpoint Dewpoint Depression Visibility Wind Speed Wind Dir Waves Ship Positions

Perseverance

Owner: Cooper, Mark E, Toledo, OR. More information available from US FCC via Universal Licensing System and Coast Guard Vessel Documentation Center.

Last reported at 2017-Oct-17 05:27 UTC. Time now 2017-Oct-17 13:10 UTC.
Position N 45°00' W 124°24'.

Type: Fishing. MMSI: 367618000.

Date/timePositionNaut miles runAvg speedWind from/ knotsBaromVisibWave heightAir tempDewpointWater temp
2017-Oct-17 05:27N 45°00' W 124°24'4 9.1
2017-Oct-17 05:00N 45°04' W 124°22'6 9.1
2017-Oct-17 04:19N 45°10' W 124°21'6 8.7
2017-Oct-17 03:39N 45°16' W 124°19'3 8.6
2017-Oct-17 03:15N 45°19' W 124°18'3 8.7
2017-Oct-17 02:56N 45°22' W 124°17'5 8.3
2017-Oct-17 02:17N 45°27' W 124°16'2 8.7
2017-Oct-17 02:00N 45°30' W 124°15'4 8.8
2017-Oct-17 01:30N 45°34' W 124°14'5 9.2
2017-Oct-17 01:01N 45°38' W 124°13'5 9.3
2017-Oct-17 00:30N 45°43' W 124°11'5 9.1
2017-Oct-17 00:00N 45°47' W 124°09'5 9.5
2017-Oct-16 23:30N 45°52' W 124°09'5 9.5
2017-Oct-16 23:00N 45°57' W 124°08'5 9.3
2017-Oct-16 22:30N 46°01' W 124°08'5 9.2
2017-Oct-16 22:01N 46°06' W 124°08'5 9.4
2017-Oct-16 21:31N 46°11' W 124°07'510.0
2017-Oct-16 21:00N 46°15' W 124°05'510.4
2017-Oct-16 20:31N 46°13' W 123°58'4 8.8
2017-Oct-16 20:00N 46°11' W 123°52'0 0.0
2017-Oct-16 19:30N 46°11' W 123°52'0 0.0
2017-Oct-16 19:01N 46°11' W 123°52'0 0.0
2017-Oct-16 18:30N 46°11' W 123°52'0 0.0
2017-Oct-16 18:01N 46°11' W 123°52'0 0.0
2017-Oct-16 17:31N 46°11' W 123°52'0 0.0
2017-Oct-16 17:01N 46°11' W 123°52'0 0.0
2017-Oct-16 16:31N 46°11' W 123°52'0 0.0
2017-Oct-16 16:01N 46°11' W 123°52'0 0.0
2017-Oct-16 15:30N 46°11' W 123°52'0 0.0
2017-Oct-16 15:01N 46°11' W 123°52'2 3.5
2017-Oct-16 14:31N 46°11' W 123°54'8 7.8
2017-Oct-16 13:30N 46°15' W 124°04'3 6.8
2017-Oct-16 13:01N 46°12' W 124°07'4 7.3
2017-Oct-16 12:30N 46°09' W 124°08'4 7.4
2017-Oct-16 12:01N 46°05' W 124°09'4 7.9
2017-Oct-16 11:30N 46°01' W 124°09'4 7.9
2017-Oct-16 11:01N 45°57' W 124°09'4 7.8
2017-Oct-16 10:31N 45°53' W 124°09'4 7.8
2017-Oct-16 10:00N 45°49' W 124°09'4 7.6
2017-Oct-16 09:31N 45°45' W 124°09'4 7.3
2017-Oct-16 09:00N 45°42' W 124°09'4 7.3
2017-Oct-16 08:31N 45°38' W 124°10'4 7.4
2017-Oct-16 08:01N 45°34' W 124°10'5 7.6
2017-Oct-16 07:22N 45°30' W 124°10'3 8.0
2017-Oct-16 07:01N 45°27' W 124°11'4 8.0
2017-Oct-16 06:31N 45°23' W 124°11'4 7.9
2017-Oct-16 06:00N 45°19' W 124°12'4 7.7
2017-Oct-16 05:30N 45°15' W 124°12'4 7.8
2017-Oct-16 05:00N 45°11' W 124°12'4 7.7
2017-Oct-16 04:30N 45°07' W 124°12'4 7.8
2017-Oct-16 03:57N 45°03' W 124°12'42 7.9
2017-Oct-15 22:38N 44°22' W 124°25'1 8.3
2017-Oct-15 22:30N 44°21' W 124°26'4 8.5
2017-Oct-15 22:01N 44°17' W 124°28'59 3.2
2017-Oct-15 03:36N 45°16' W 124°28'1 9.4
2017-Oct-15 03:29N 45°17' W 124°27'6 9.1
2017-Oct-15 02:47N 45°23' W 124°26'2 8.7
2017-Oct-15 02:30N 45°26' W 124°26'8 9.2
2017-Oct-15 01:41N 45°33' W 124°24'3 9.3
2017-Oct-15 01:20N 45°36' W 124°22'3 9.2
2017-Oct-15 01:01N 45°39' W 124°21'5 9.1
2017-Oct-15 00:30N 45°43' W 124°19'4 8.8
2017-Oct-15 00:01N 45°47' W 124°17'4 8.7
2017-Oct-14 23:31N 45°52' W 124°15'6 9.2
2017-Oct-14 22:53N 45°57' W 124°13'3 9.1
2017-Oct-14 22:31N 46°00' W 124°11'5 9.2
2017-Oct-14 22:01N 46°05' W 124°09'4 8.9
2017-Oct-14 21:31N 46°09' W 124°08'5 9.1
2017-Oct-14 21:01N 46°13' W 124°06'5 9.4
2017-Oct-14 20:31N 46°14' W 123°60'611.3
2017-Oct-14 20:01N 46°11' W 123°53'1 1.2
2017-Oct-14 19:30N 46°11' W 123°52'0 0.1
2017-Oct-14 19:01N 46°11' W 123°52'0 0.0
2017-Oct-14 18:30N 46°11' W 123°52'0 0.0
2017-Oct-14 18:00N 46°11' W 123°52'0 0.0
2017-Oct-14 17:30N 46°11' W 123°52'0 0.0
2017-Oct-14 17:00N 46°11' W 123°52'0 0.0
2017-Oct-14 16:31N 46°11' W 123°52'0 0.1
2017-Oct-14 16:01N 46°11' W 123°52'0 0.0
2017-Oct-14 15:30N 46°11' W 123°52'0 0.0
2017-Oct-14 15:01N 46°11' W 123°52'0 0.0
2017-Oct-14 14:31N 46°11' W 123°52'0 0.0
2017-Oct-14 14:01N 46°11' W 123°52'0 0.0
2017-Oct-14 13:31N 46°11' W 123°52'0 0.0
2017-Oct-14 13:01N 46°11' W 123°52'0 0.0
2017-Oct-14 12:31N 46°11' W 123°52'0 0.0
2017-Oct-14 12:01N 46°11' W 123°52'0 0.0
2017-Oct-14 11:30N 46°11' W 123°52'0 0.0
2017-Oct-14 11:01N 46°11' W 123°52'0 0.0
2017-Oct-14 10:31N 46°11' W 123°52'0 0.0
2017-Oct-14 10:01N 46°11' W 123°52'0 0.0
2017-Oct-14 09:31N 46°11' W 123°52'0 0.0
2017-Oct-14 09:01N 46°11' W 123°52'0 0.0
2017-Oct-14 08:31N 46°11' W 123°52'0 0.0
2017-Oct-14 08:00N 46°11' W 123°52'0 0.0
2017-Oct-14 07:30N 46°11' W 123°52'0 0.0
2017-Oct-14 07:01N 46°11' W 123°52'0 0.0
2017-Oct-14 06:30N 46°11' W 123°52'0 0.0
2017-Oct-14 06:00N 46°11' W 123°52'0 0.0
2017-Oct-14 05:30N 46°11' W 123°52'0 0.0
2017-Oct-14 05:00N 46°11' W 123°52'0 0.0
2017-Oct-14 04:27N 46°11' W 123°52'0 0.0
2017-Oct-14 04:00N 46°11' W 123°52'0 0.0
2017-Oct-14 03:21N 46°11' W 123°52'0 0.0
2017-Oct-14 03:01N 46°11' W 123°52'0 0.0
2017-Oct-14 02:30N 46°11' W 123°52'0 0.0
2017-Oct-14 02:00N 46°11' W 123°52'0 0.0
2017-Oct-14 01:30N 46°11' W 123°52'0 0.0
2017-Oct-14 01:00N 46°11' W 123°52'0 0.0
2017-Oct-14 00:31N 46°11' W 123°52'0 0.0
2017-Oct-14 00:00N 46°11' W 123°52'0 0.0
2017-Oct-13 23:31N 46°11' W 123°52'0 0.0
2017-Oct-13 23:00N 46°11' W 123°52'0 0.0
2017-Oct-13 22:30N 46°11' W 123°52'0 0.0
2017-Oct-13 22:00N 46°11' W 123°52'0 0.0
2017-Oct-13 21:15N 46°11' W 123°52'0 0.0
2017-Oct-13 21:00N 46°11' W 123°52'0 0.1
2017-Oct-13 20:30N 46°11' W 123°52'0 0.1
2017-Oct-13 20:00N 46°11' W 123°52'0 0.0
2017-Oct-13 19:30N 46°11' W 123°52'0 0.0
2017-Oct-13 19:01N 46°11' W 123°52'0 0.0
2017-Oct-13 18:21N 46°11' W 123°52'0 0.0
2017-Oct-13 18:01N 46°11' W 123°52'0 0.0
2017-Oct-13 17:14N 46°11' W 123°52'0 0.0
2017-Oct-13 17:01N 46°11' W 123°52'0 0.0
2017-Oct-13 16:31N 46°11' W 123°52'0 0.0
2017-Oct-13 16:01N 46°11' W 123°52'0 0.0
2017-Oct-13 15:30N 46°11' W 123°52'0 0.0
2017-Oct-13 15:01N 46°11' W 123°52'0 0.0
2017-Oct-13 14:31N 46°11' W 123°52'0 0.1
2017-Oct-13 13:51N 46°11' W 123°52'0 0.1
2017-Oct-13 13:31N 46°11' W 123°52'0 0.1
2017-Oct-13 12:50N 46°11' W 123°52'0 0.1
2017-Oct-13 12:31N 46°11' W 123°52'0 0.1
2017-Oct-13 11:56N 46°11' W 123°52'0 0.0
2017-Oct-13 11:30N 46°11' W 123°52'1 1.0
2017-Oct-13 11:00N 46°11' W 123°53'3 7.0
2017-Oct-13 10:31N 46°13' W 123°57'4 7.5
2017-Oct-13 10:00N 46°15' W 124°01'5 6.6
2017-Oct-13 09:15N 46°16' W 124°09'1 4.7
2017-Oct-13 09:01N 46°17' W 124°10'3 6.7
2017-Oct-13 08:30N 46°20' W 124°11'2 2.6
2017-Oct-13 07:53N 46°22' W 124°12'2 4.6
2017-Oct-13 07:31N 46°23' W 124°13'2 4.8
2017-Oct-13 07:00N 46°25' W 124°14'2 4.8
2017-Oct-13 06:31N 46°28' W 124°15'3 5.0
2017-Oct-13 05:56N 46°30' W 124°17'2 4.6
2017-Oct-13 05:31N 46°32' W 124°18'2 4.7
2017-Oct-13 05:01N 46°34' W 124°19'2 4.7
2017-Oct-13 04:30N 46°37' W 124°20'2 4.2
2017-Oct-13 04:00N 46°39' W 124°20'2 4.3
2017-Oct-13 03:30N 46°41' W 124°21'2 4.4
2017-Oct-13 03:01N 46°43' W 124°22'3 4.3
2017-Oct-13 02:21N 46°46' W 124°23'2 4.6
2017-Oct-13 02:00N 46°47' W 124°23'2 4.7
2017-Oct-13 01:31N 46°49' W 124°24'3 5.3
2017-Oct-13 01:00N 46°52' W 124°25'2 3.7
2017-Oct-13 00:30N 46°53' W 124°27'2 4.4
2017-Oct-13 00:01N 46°55' W 124°29'3 5.3
2017-Oct-12 23:30N 46°57' W 124°31'3 5.1
2017-Oct-12 23:00N 46°60' W 124°32'13 0.8
2017-Oct-12 06:19N 46°59' W 124°50'0 0.7
2017-Oct-12 06:01N 46°59' W 124°50'4 6.7
2017-Oct-12 05:26N 46°55' W 124°49'3 6.6
2017-Oct-12 05:00N 46°53' W 124°48'3 6.5
2017-Oct-12 04:30N 46°50' W 124°46'3 6.6
2017-Oct-12 04:00N 46°46' W 124°45'3 6.8
2017-Oct-12 03:30N 46°43' W 124°43'3 6.4
2017-Oct-12 03:01N 46°40' W 124°42'3 5.1
2017-Oct-12 02:30N 46°38' W 124°40'3 5.7
2017-Oct-12 02:00N 46°35' W 124°38'3 5.9
2017-Oct-12 01:30N 46°34' W 124°34'3 6.6
2017-Oct-12 01:00N 46°31' W 124°31'6 7.4
2017-Oct-12 00:08N 46°27' W 124°25'2 7.8
2017-Oct-11 23:50N 46°25' W 124°22'3 7.8
2017-Oct-11 23:30N 46°24' W 124°19'4 7.3
2017-Oct-11 23:00N 46°21' W 124°16'6 8.4
2017-Oct-11 22:19N 46°17' W 124°11'3 8.6
2017-Oct-11 21:58N 46°15' W 124°06'4 7.9
2017-Oct-11 21:31N 46°15' W 124°01'4 8.5
2017-Oct-11 21:01N 46°13' W 123°57'4 8.9
2017-Oct-11 20:31N 46°12' W 123°50'0 0.1
2017-Oct-11 20:01N 46°12' W 123°50'0 0.0
2017-Oct-11 19:30N 46°12' W 123°50'1 2.1
2017-Oct-11 19:01N 46°11' W 123°52'0 0.0
2017-Oct-11 18:31N 46°11' W 123°52'0 0.0
2017-Oct-11 18:01N 46°11' W 123°52'0 0.0
2017-Oct-11 17:31N 46°11' W 123°52'0 0.0
2017-Oct-11 17:00N 46°11' W 123°52'50 3.0
2017-Oct-11 00:00N 46°44' W 124°48'1 3.0
2017-Oct-10 23:30N 46°42' W 124°47'1 3.0
2017-Oct-10 23:00N 46°41' W 124°46'2 3.2
2017-Oct-10 22:30N 46°40' W 124°44'2 3.6
2017-Oct-10 22:00N 46°38' W 124°43'1 1.9
2017-Oct-10 21:30N 46°39' W 124°43'1 2.9
2017-Oct-10 21:00N 46°40' W 124°45'2 3.1
2017-Oct-10 20:30N 46°41' W 124°47'2 3.0
2017-Oct-10 20:00N 46°42' W 124°47'2 3.0
2017-Oct-10 19:30N 46°44' W 124°49'2 3.6
2017-Oct-10 19:01N 46°45' W 124°51'1 2.2
2017-Oct-10 18:30N 46°44' W 124°50'1 3.0
2017-Oct-10 18:00N 46°43' W 124°48'1 3.0
2017-Oct-10 17:30N 46°42' W 124°47'1 2.9
2017-Oct-10 17:00N 46°40' W 124°46'1 3.0
2017-Oct-10 16:31N 46°39' W 124°45'1 1.6
2017-Oct-10 16:00N 46°39' W 124°44'3 4.5
2017-Oct-10 15:26N 46°41' W 124°47'2 5.3
2017-Oct-10 15:00N 46°40' W 124°44'6 5.7
2017-Oct-10 14:00N 46°36' W 124°38'2 4.9
2017-Oct-10 13:30N 46°34' W 124°35'3 6.5
2017-Oct-10 13:01N 46°33' W 124°30'7 8.9
2017-Oct-10 12:15N 46°28' W 124°24'2 9.0
2017-Oct-10 12:00N 46°27' W 124°22'4 9.0
2017-Oct-10 11:31N 46°23' W 124°17'4 8.9
2017-Oct-10 11:01N 46°20' W 124°13'4 8.3
2017-Oct-10 10:31N 46°17' W 124°10'4 7.3
2017-Oct-10 10:00N 46°15' W 124°05'5 7.0
2017-Oct-10 09:18N 46°13' W 123°58'4 8.3
2017-Oct-10 08:52N 46°11' W 123°54'1 3.7
2017-Oct-10 08:31N 46°11' W 123°52'0 0.0
2017-Oct-10 08:00N 46°11' W 123°52'0 0.0
2017-Oct-10 07:31N 46°11' W 123°52'0 0.0
2017-Oct-10 07:00N 46°11' W 123°52'0 0.0
2017-Oct-10 06:30N 46°11' W 123°52'0 0.0
2017-Oct-10 05:56N 46°11' W 123°52'0 0.0
2017-Oct-10 05:31N 46°11' W 123°52'0 0.0
2017-Oct-10 05:01N 46°11' W 123°52'0 0.1
2017-Oct-10 04:30N 46°11' W 123°52'0 0.1
2017-Oct-10 03:51N 46°11' W 123°52'0 0.1
2017-Oct-10 03:30N 46°11' W 123°52'0 0.1
2017-Oct-10 02:56N 46°11' W 123°52'0 0.0
2017-Oct-10 02:31N 46°11' W 123°52'0 0.4
2017-Oct-10 02:00N 46°11' W 123°52'0 0.0
2017-Oct-10 01:11N 46°11' W 123°52'0 0.0
2017-Oct-10 01:01N 46°11' W 123°52'0 0.0
2017-Oct-10 00:31N 46°11' W 123°52'0 0.0
2017-Oct-10 00:00N 46°11' W 123°52'0 0.0
2017-Oct-09 23:31N 46°11' W 123°52'3 5.4
2017-Oct-09 23:00N 46°12' W 123°55'5 9.9
2017-Oct-09 22:30N 46°15' W 124°01'510.7
2017-Oct-09 22:01N 46°16' W 124°08'510.4
2017-Oct-09 21:30N 46°19' W 124°14'5 9.9
2017-Oct-09 21:01N 46°23' W 124°19'5 9.6
2017-Oct-09 20:30N 46°27' W 124°24'5 9.8
2017-Oct-09 20:00N 46°30' W 124°28'5 9.4
2017-Oct-09 19:31N 46°34' W 124°33'5 9.1
2017-Oct-09 19:00N 46°37' W 124°38'4 8.9
2017-Oct-09 18:30N 46°40' W 124°42'4 7.7
2017-Oct-09 18:00N 46°43' W 124°46'4 7.1
2017-Oct-09 17:30N 46°46' W 124°49'1 1.6
2017-Oct-09 17:00N 46°45' W 124°50'2 3.3
2017-Oct-09 16:30N 46°44' W 124°48'2 3.4
2017-Oct-09 16:00N 46°42' W 124°47'2 3.4
2017-Oct-09 15:30N 46°41' W 124°46'2 3.5
2017-Oct-09 15:00N 46°40' W 124°44'0 0.6
2017-Oct-09 14:30N 46°40' W 124°43'2 3.1
2017-Oct-09 14:00N 46°39' W 124°45'2 3.2
2017-Oct-09 13:30N 46°40' W 124°43'2 4.4
2017-Oct-09 13:00N 46°40' W 124°40'2 4.3
2017-Oct-09 12:30N 46°40' W 124°37'2 3.4
2017-Oct-09 12:00N 46°40' W 124°35'2 3.9
2017-Oct-09 11:30N 46°40' W 124°37'2 3.9
2017-Oct-09 10:59N 46°41' W 124°40'3 4.0
2017-Oct-09 10:13N 46°41' W 124°45'1 3.8
2017-Oct-09 10:00N 46°41' W 124°46'2 3.5
2017-Oct-09 09:30N 46°41' W 124°43'2 3.5
2017-Oct-09 09:00N 46°41' W 124°41'2 3.4
2017-Oct-09 08:30N 46°40' W 124°38'2 3.5
2017-Oct-09 08:00N 46°40' W 124°36'2 3.4
2017-Oct-09 07:30N 46°40' W 124°33'2 3.7
2017-Oct-09 07:00N 46°40' W 124°36'2 3.8
2017-Oct-09 06:30N 46°41' W 124°39'2 4.0
2017-Oct-09 06:00N 46°41' W 124°42'2 3.7
2017-Oct-09 05:30N 46°41' W 124°44'2 3.7
2017-Oct-09 05:00N 46°41' W 124°47'1 3.0
2017-Oct-09 04:30N 46°41' W 124°49'1 2.7
2017-Oct-09 04:00N 46°41' W 124°48'0 0.7
2017-Oct-09 03:30N 46°40' W 124°47'1 1.4
2017-Oct-09 03:00N 46°40' W 124°46'1 3.0
2017-Oct-09 02:30N 46°39' W 124°44'2 3.0
2017-Oct-09 02:00N 46°39' W 124°43'1 2.6
2017-Oct-09 01:31N 46°38' W 124°41'2 3.2
2017-Oct-09 00:49N 46°36' W 124°39'1 3.7
2017-Oct-09 00:30N 46°37' W 124°40'1 2.6
2017-Oct-09 00:00N 46°36' W 124°38'1 1.6
2017-Oct-08 23:31N 46°36' W 124°38'0 0.9
2017-Oct-08 23:01N 46°36' W 124°37'6 8.0
2017-Oct-08 22:16N 46°33' W 124°30'2 6.1
2017-Oct-08 22:00N 46°32' W 124°31'4 7.6
2017-Oct-08 21:31N 46°28' W 124°31'4 7.2
2017-Oct-08 21:00N 46°25' W 124°33'4 7.0
2017-Oct-08 20:30N 46°21' W 124°33'5 9.3
2017-Oct-08 20:01N 46°17' W 124°30'4 8.0
2017-Oct-08 19:31N 46°17' W 124°24'5 9.3
2017-Oct-08 19:00N 46°15' W 124°17'4 8.2
2017-Oct-08 18:30N 46°15' W 124°12'6 7.6
2017-Oct-08 17:46N 46°15' W 124°04'2 8.2
2017-Oct-08 17:30N 46°15' W 124°00'510.0
2017-Oct-08 17:00N 46°12' W 123°55'2 4.5
2017-Oct-08 16:30N 46°11' W 123°52'0 0.0
2017-Oct-08 16:01N 46°11' W 123°52'0 0.0
2017-Oct-08 15:31N 46°11' W 123°52'0 0.0
2017-Oct-08 14:47N 46°11' W 123°52'0 0.0
2017-Oct-08 14:25N 46°11' W 123°52'0 0.0
2017-Oct-08 14:01N 46°11' W 123°52'0 0.0
2017-Oct-08 13:31N 46°11' W 123°52'0 0.0
2017-Oct-08 13:01N 46°11' W 123°52'0 0.0
2017-Oct-08 12:31N 46°11' W 123°52'0 0.0
2017-Oct-08 12:00N 46°11' W 123°52'0 0.0
2017-Oct-08 11:31N 46°11' W 123°52'0 0.0
2017-Oct-08 11:01N 46°11' W 123°52'0 0.0
2017-Oct-08 10:31N 46°11' W 123°52'0 0.0
2017-Oct-08 10:01N 46°11' W 123°52'0 0.0
2017-Oct-08 09:31N 46°11' W 123°52'0 0.0
2017-Oct-08 09:01N 46°11' W 123°52'0 0.1
2017-Oct-08 08:20N 46°11' W 123°52'0 0.1
2017-Oct-08 08:01N 46°11' W 123°52'0 0.0
2017-Oct-08 07:30N 46°11' W 123°52'0 0.0
2017-Oct-08 07:00N 46°11' W 123°52'0 0.7
2017-Oct-08 06:30N 46°11' W 123°52'4 8.1
2017-Oct-08 06:00N 46°13' W 123°58'4 8.6
2017-Oct-08 05:30N 46°15' W 124°03'3 7.0
2017-Oct-08 05:00N 46°15' W 124°08'4 7.2
2017-Oct-08 04:30N 46°17' W 124°12'5 9.2
2017-Oct-08 04:00N 46°22' W 124°14'6 9.2
2017-Oct-08 03:19N 46°28' W 124°17'3 8.7
2017-Oct-08 03:00N 46°30' W 124°18'4 8.5
2017-Oct-08 02:30N 46°34' W 124°20'4 8.4
2017-Oct-08 02:00N 46°38' W 124°22'4 8.2
2017-Oct-08 01:30N 46°42' W 124°23'4 8.2
2017-Oct-08 00:58N 46°46' W 124°26'4 8.3
2017-Oct-08 00:30N 46°50' W 124°27'4 7.9
2017-Oct-08 00:00N 46°54' W 124°29'4 7.4
2017-Oct-07 23:31N 46°57' W 124°32'4 7.3
2017-Oct-07 23:00N 47°00' W 124°33'4 7.3
2017-Oct-07 22:30N 47°04' W 124°36'11 1.0
2017-Oct-07 11:23N 47°11' W 124°48'2 6.3
2017-Oct-07 11:00N 47°09' W 124°51'8 4.7
2017-Oct-07 09:24N 47°01' W 124°50'2 3.9
2017-Oct-07 09:00N 47°00' W 124°51'3 2.3
2017-Oct-07 07:31N 46°57' W 124°52'0 3.3
2017-Oct-07 07:29N 46°57' W 124°52'2 3.1
2017-Oct-07 06:46N 46°55' W 124°50'1 2.6
2017-Oct-07 06:30N 46°55' W 124°49'1 2.4
2017-Oct-07 06:00N 46°54' W 124°49'2 4.4
2017-Oct-07 05:30N 46°52' W 124°51'  
Track history (hours):
 
Tides and Currents Weather Stations Pressure Air Temp Water Temp Dewpoint Dewpoint Depression Visibility Wind Speed Wind Dir Waves Ship Positions

Perseverance

Owner: Cooper, Mark E, Toledo, OR. More information available from US FCC via Universal Licensing System and Coast Guard Vessel Documentation Center.

Last reported at 2017-Oct-17 05:27 UTC. Time now 2017-Oct-17 13:10 UTC.
Position N 45°00' W 124°24'.

Type: Fishing. MMSI: 367618000.

Date/timePositionNaut miles runAvg speedWind from/ knotsBaromVisibWave heightAir tempDewpointWater temp
2017-Oct-17 05:27N 45°00' W 124°24'4 9.1
2017-Oct-17 05:00N 45°04' W 124°22'6 9.1
2017-Oct-17 04:19N 45°10' W 124°21'6 8.7
2017-Oct-17 03:39N 45°16' W 124°19'3 8.6
2017-Oct-17 03:15N 45°19' W 124°18'3 8.7
2017-Oct-17 02:56N 45°22' W 124°17'5 8.3
2017-Oct-17 02:17N 45°27' W 124°16'2 8.7
2017-Oct-17 02:00N 45°30' W 124°15'4 8.8
2017-Oct-17 01:30N 45°34' W 124°14'5 9.2
2017-Oct-17 01:01N 45°38' W 124°13'5 9.3
2017-Oct-17 00:30N 45°43' W 124°11'5 9.1
2017-Oct-17 00:00N 45°47' W 124°09'5 9.5
2017-Oct-16 23:30N 45°52' W 124°09'5 9.5
2017-Oct-16 23:00N 45°57' W 124°08'5 9.3
2017-Oct-16 22:30N 46°01' W 124°08'5 9.2
2017-Oct-16 22:01N 46°06' W 124°08'5 9.4
2017-Oct-16 21:31N 46°11' W 124°07'510.0
2017-Oct-16 21:00N 46°15' W 124°05'510.4
2017-Oct-16 20:31N 46°13' W 123°58'4 8.8
2017-Oct-16 20:00N 46°11' W 123°52'0 0.0
2017-Oct-16 19:30N 46°11' W 123°52'0 0.0
2017-Oct-16 19:01N 46°11' W 123°52'0 0.0
2017-Oct-16 18:30N 46°11' W 123°52'0 0.0
2017-Oct-16 18:01N 46°11' W 123°52'0 0.0
2017-Oct-16 17:31N 46°11' W 123°52'0 0.0
2017-Oct-16 17:01N 46°11' W 123°52'0 0.0
2017-Oct-16 16:31N 46°11' W 123°52'0 0.0
2017-Oct-16 16:01N 46°11' W 123°52'0 0.0
2017-Oct-16 15:30N 46°11' W 123°52'0 0.0
2017-Oct-16 15:01N 46°11' W 123°52'2 3.5
2017-Oct-16 14:31N 46°11' W 123°54'8 7.8
2017-Oct-16 13:30N 46°15' W 124°04'3 6.8
2017-Oct-16 13:01N 46°12' W 124°07'4 7.3
2017-Oct-16 12:30N 46°09' W 124°08'4 7.4
2017-Oct-16 12:01N 46°05' W 124°09'4 7.9
2017-Oct-16 11:30N 46°01' W 124°09'4 7.9
2017-Oct-16 11:01N 45°57' W 124°09'4 7.8
2017-Oct-16 10:31N 45°53' W 124°09'4 7.8
2017-Oct-16 10:00N 45°49' W 124°09'4 7.6
2017-Oct-16 09:31N 45°45' W 124°09'4 7.3
2017-Oct-16 09:00N 45°42' W 124°09'4 7.3
2017-Oct-16 08:31N 45°38' W 124°10'4 7.4
2017-Oct-16 08:01N 45°34' W 124°10'5 7.6
2017-Oct-16 07:22N 45°30' W 124°10'3 8.0
2017-Oct-16 07:01N 45°27' W 124°11'4 8.0
2017-Oct-16 06:31N 45°23' W 124°11'4 7.9
2017-Oct-16 06:00N 45°19' W 124°12'4 7.7
2017-Oct-16 05:30N 45°15' W 124°12'4 7.8
2017-Oct-16 05:00N 45°11' W 124°12'4 7.7
2017-Oct-16 04:30N 45°07' W 124°12'4 7.8
2017-Oct-16 03:57N 45°03' W 124°12'42 7.9
2017-Oct-15 22:38N 44°22' W 124°25'1 8.3
2017-Oct-15 22:30N 44°21' W 124°26'4 8.5
2017-Oct-15 22:01N 44°17' W 124°28'59 3.2
2017-Oct-15 03:36N 45°16' W 124°28'1 9.4
2017-Oct-15 03:29N 45°17' W 124°27'6 9.1
2017-Oct-15 02:47N 45°23' W 124°26'2 8.7
2017-Oct-15 02:30N 45°26' W 124°26'8 9.2
2017-Oct-15 01:41N 45°33' W 124°24'3 9.3
2017-Oct-15 01:20N 45°36' W 124°22'3 9.2
2017-Oct-15 01:01N 45°39' W 124°21'5 9.1
2017-Oct-15 00:30N 45°43' W 124°19'4 8.8
2017-Oct-15 00:01N 45°47' W 124°17'4 8.7
2017-Oct-14 23:31N 45°52' W 124°15'6 9.2
2017-Oct-14 22:53N 45°57' W 124°13'3 9.1
2017-Oct-14 22:31N 46°00' W 124°11'5 9.2
2017-Oct-14 22:01N 46°05' W 124°09'4 8.9
2017-Oct-14 21:31N 46°09' W 124°08'5 9.1
2017-Oct-14 21:01N 46°13' W 124°06'5 9.4
2017-Oct-14 20:31N 46°14' W 123°60'611.3
2017-Oct-14 20:01N 46°11' W 123°53'1 1.2
2017-Oct-14 19:30N 46°11' W 123°52'0 0.1
2017-Oct-14 19:01N 46°11' W 123°52'0 0.0
2017-Oct-14 18:30N 46°11' W 123°52'0 0.0
2017-Oct-14 18:00N 46°11' W 123°52'0 0.0
2017-Oct-14 17:30N 46°11' W 123°52'0 0.0
2017-Oct-14 17:00N 46°11' W 123°52'0 0.0
2017-Oct-14 16:31N 46°11' W 123°52'0 0.1
2017-Oct-14 16:01N 46°11' W 123°52'0 0.0
2017-Oct-14 15:30N 46°11' W 123°52'0 0.0
2017-Oct-14 15:01N 46°11' W 123°52'0 0.0
2017-Oct-14 14:31N 46°11' W 123°52'0 0.0
2017-Oct-14 14:01N 46°11' W 123°52'0 0.0
2017-Oct-14 13:31N 46°11' W 123°52'0 0.0
2017-Oct-14 13:01N 46°11' W 123°52'0 0.0
2017-Oct-14 12:31N 46°11' W 123°52'0 0.0
2017-Oct-14 12:01N 46°11' W 123°52'0 0.0
2017-Oct-14 11:30N 46°11' W 123°52'0 0.0
2017-Oct-14 11:01N 46°11' W 123°52'0 0.0
2017-Oct-14 10:31N 46°11' W 123°52'0 0.0
2017-Oct-14 10:01N 46°11' W 123°52'0 0.0
2017-Oct-14 09:31N 46°11' W 123°52'0 0.0
2017-Oct-14 09:01N 46°11' W 123°52'0 0.0
2017-Oct-14 08:31N 46°11' W 123°52'0 0.0
2017-Oct-14 08:00N 46°11' W 123°52'0 0.0
2017-Oct-14 07:30N 46°11' W 123°52'0 0.0
2017-Oct-14 07:01N 46°11' W 123°52'0 0.0
2017-Oct-14 06:30N 46°11' W 123°52'0 0.0
2017-Oct-14 06:00N 46°11' W 123°52'0 0.0
2017-Oct-14 05:30N 46°11' W 123°52'0 0.0
2017-Oct-14 05:00N 46°11' W 123°52'0 0.0
2017-Oct-14 04:27N 46°11' W 123°52'0 0.0
2017-Oct-14 04:00N 46°11' W 123°52'0 0.0
2017-Oct-14 03:21N 46°11' W 123°52'0 0.0
2017-Oct-14 03:01N 46°11' W 123°52'0 0.0
2017-Oct-14 02:30N 46°11' W 123°52'0 0.0
2017-Oct-14 02:00N 46°11' W 123°52'0 0.0
2017-Oct-14 01:30N 46°11' W 123°52'0 0.0
2017-Oct-14 01:00N 46°11' W 123°52'0 0.0
2017-Oct-14 00:31N 46°11' W 123°52'0 0.0
2017-Oct-14 00:00N 46°11' W 123°52'0 0.0
2017-Oct-13 23:31N 46°11' W 123°52'0 0.0
2017-Oct-13 23:00N 46°11' W 123°52'0 0.0
2017-Oct-13 22:30N 46°11' W 123°52'0 0.0
2017-Oct-13 22:00N 46°11' W 123°52'0 0.0
2017-Oct-13 21:15N 46°11' W 123°52'0 0.0
2017-Oct-13 21:00N 46°11' W 123°52'0 0.1
2017-Oct-13 20:30N 46°11' W 123°52'0 0.1
2017-Oct-13 20:00N 46°11' W 123°52'0 0.0
2017-Oct-13 19:30N 46°11' W 123°52'0 0.0
2017-Oct-13 19:01N 46°11' W 123°52'0 0.0
2017-Oct-13 18:21N 46°11' W 123°52'0 0.0
2017-Oct-13 18:01N 46°11' W 123°52'0 0.0
2017-Oct-13 17:14N 46°11' W 123°52'0 0.0
2017-Oct-13 17:01N 46°11' W 123°52'0 0.0
2017-Oct-13 16:31N 46°11' W 123°52'0 0.0
2017-Oct-13 16:01N 46°11' W 123°52'0 0.0
2017-Oct-13 15:30N 46°11' W 123°52'0 0.0
2017-Oct-13 15:01N 46°11' W 123°52'0 0.0
2017-Oct-13 14:31N 46°11' W 123°52'0 0.1
2017-Oct-13 13:51N 46°11' W 123°52'0 0.1
2017-Oct-13 13:31N 46°11' W 123°52'0 0.1
2017-Oct-13 12:50N 46°11' W 123°52'0 0.1
2017-Oct-13 12:31N 46°11' W 123°52'0 0.1
2017-Oct-13 11:56N 46°11' W 123°52'0 0.0
2017-Oct-13 11:30N 46°11' W 123°52'1 1.0
2017-Oct-13 11:00N 46°11' W 123°53'3 7.0
2017-Oct-13 10:31N 46°13' W 123°57'4 7.5
2017-Oct-13 10:00N 46°15' W 124°01'5 6.6
2017-Oct-13 09:15N 46°16' W 124°09'1 4.7
2017-Oct-13 09:01N 46°17' W 124°10'3 6.7
2017-Oct-13 08:30N 46°20' W 124°11'2 2.6
2017-Oct-13 07:53N 46°22' W 124°12'2 4.6
2017-Oct-13 07:31N 46°23' W 124°13'2 4.8
2017-Oct-13 07:00N 46°25' W 124°14'2 4.8
2017-Oct-13 06:31N 46°28' W 124°15'3 5.0
2017-Oct-13 05:56N 46°30' W 124°17'2 4.6
2017-Oct-13 05:31N 46°32' W 124°18'2 4.7
2017-Oct-13 05:01N 46°34' W 124°19'2 4.7
2017-Oct-13 04:30N 46°37' W 124°20'2 4.2
2017-Oct-13 04:00N 46°39' W 124°20'2 4.3
2017-Oct-13 03:30N 46°41' W 124°21'2 4.4
2017-Oct-13 03:01N 46°43' W 124°22'3 4.3
2017-Oct-13 02:21N 46°46' W 124°23'2 4.6
2017-Oct-13 02:00N 46°47' W 124°23'2 4.7
2017-Oct-13 01:31N 46°49' W 124°24'3 5.3
2017-Oct-13 01:00N 46°52' W 124°25'2 3.7
2017-Oct-13 00:30N 46°53' W 124°27'2 4.4
2017-Oct-13 00:01N 46°55' W 124°29'3 5.3
2017-Oct-12 23:30N 46°57' W 124°31'3 5.1
2017-Oct-12 23:00N 46°60' W 124°32'13 0.8
2017-Oct-12 06:19N 46°59' W 124°50'0 0.7
2017-Oct-12 06:01N 46°59' W 124°50'4 6.7
2017-Oct-12 05:26N 46°55' W 124°49'3 6.6
2017-Oct-12 05:00N 46°53' W 124°48'3 6.5
2017-Oct-12 04:30N 46°50' W 124°46'3 6.6
2017-Oct-12 04:00N 46°46' W 124°45'3 6.8
2017-Oct-12 03:30N 46°43' W 124°43'3 6.4
2017-Oct-12 03:01N 46°40' W 124°42'3 5.1
2017-Oct-12 02:30N 46°38' W 124°40'3 5.7
2017-Oct-12 02:00N 46°35' W 124°38'3 5.9
2017-Oct-12 01:30N 46°34' W 124°34'3 6.6
2017-Oct-12 01:00N 46°31' W 124°31'6 7.4
2017-Oct-12 00:08N 46°27' W 124°25'2 7.8
2017-Oct-11 23:50N 46°25' W 124°22'3 7.8
2017-Oct-11 23:30N 46°24' W 124°19'4 7.3
2017-Oct-11 23:00N 46°21' W 124°16'6 8.4
2017-Oct-11 22:19N 46°17' W 124°11'3 8.6
2017-Oct-11 21:58N 46°15' W 124°06'4 7.9
2017-Oct-11 21:31N 46°15' W 124°01'4 8.5
2017-Oct-11 21:01N 46°13' W 123°57'4 8.9
2017-Oct-11 20:31N 46°12' W 123°50'0 0.1
2017-Oct-11 20:01N 46°12' W 123°50'0 0.0
2017-Oct-11 19:30N 46°12' W 123°50'1 2.1
2017-Oct-11 19:01N 46°11' W 123°52'0 0.0
2017-Oct-11 18:31N 46°11' W 123°52'0 0.0
2017-Oct-11 18:01N 46°11' W 123°52'0 0.0
2017-Oct-11 17:31N 46°11' W 123°52'0 0.0
2017-Oct-11 17:00N 46°11' W 123°52'50 3.0
2017-Oct-11 00:00N 46°44' W 124°48'1 3.0
2017-Oct-10 23:30N 46°42' W 124°47'1 3.0
2017-Oct-10 23:00N 46°41' W 124°46'2 3.2
2017-Oct-10 22:30N 46°40' W 124°44'2 3.6
2017-Oct-10 22:00N 46°38' W 124°43'1 1.9
2017-Oct-10 21:30N 46°39' W 124°43'1 2.9
2017-Oct-10 21:00N 46°40' W 124°45'2 3.1
2017-Oct-10 20:30N 46°41' W 124°47'2 3.0
2017-Oct-10 20:00N 46°42' W 124°47'2 3.0
2017-Oct-10 19:30N 46°44' W 124°49'2 3.6
2017-Oct-10 19:01N 46°45' W 124°51'1 2.2
2017-Oct-10 18:30N 46°44' W 124°50'1 3.0
2017-Oct-10 18:00N 46°43' W 124°48'1 3.0
2017-Oct-10 17:30N 46°42' W 124°47'1 2.9
2017-Oct-10 17:00N 46°40' W 124°46'1 3.0
2017-Oct-10 16:31N 46°39' W 124°45'1 1.6
2017-Oct-10 16:00N 46°39' W 124°44'3 4.5
2017-Oct-10 15:26N 46°41' W 124°47'2 5.3
2017-Oct-10 15:00N 46°40' W 124°44'6 5.7
2017-Oct-10 14:00N 46°36' W 124°38'2 4.9
2017-Oct-10 13:30N 46°34' W 124°35'3 6.5
2017-Oct-10 13:01N 46°33' W 124°30'7 8.9
2017-Oct-10 12:15N 46°28' W 124°24'2 9.0
2017-Oct-10 12:00N 46°27' W 124°22'4 9.0
2017-Oct-10 11:31N 46°23' W 124°17'4 8.9
2017-Oct-10 11:01N 46°20' W 124°13'4 8.3
2017-Oct-10 10:31N 46°17' W 124°10'4 7.3
2017-Oct-10 10:00N 46°15' W 124°05'5 7.0
2017-Oct-10 09:18N 46°13' W 123°58'4 8.3
2017-Oct-10 08:52N 46°11' W 123°54'1 3.7
2017-Oct-10 08:31N 46°11' W 123°52'0 0.0
2017-Oct-10 08:00N 46°11' W 123°52'0 0.0
2017-Oct-10 07:31N 46°11' W 123°52'0 0.0
2017-Oct-10 07:00N 46°11' W 123°52'0 0.0
2017-Oct-10 06:30N 46°11' W 123°52'0 0.0
2017-Oct-10 05:56N 46°11' W 123°52'0 0.0
2017-Oct-10 05:31N 46°11' W 123°52'0 0.0
2017-Oct-10 05:01N 46°11' W 123°52'0 0.1
2017-Oct-10 04:30N 46°11' W 123°52'0 0.1
2017-Oct-10 03:51N 46°11' W 123°52'0 0.1
2017-Oct-10 03:30N 46°11' W 123°52'0 0.1
2017-Oct-10 02:56N 46°11' W 123°52'0 0.0
2017-Oct-10 02:31N 46°11' W 123°52'0 0.4
2017-Oct-10 02:00N 46°11' W 123°52'0 0.0
2017-Oct-10 01:11N 46°11' W 123°52'0 0.0
2017-Oct-10 01:01N 46°11' W 123°52'0 0.0
2017-Oct-10 00:31N 46°11' W 123°52'0 0.0
2017-Oct-10 00:00N 46°11' W 123°52'0 0.0
2017-Oct-09 23:31N 46°11' W 123°52'3 5.4
2017-Oct-09 23:00N 46°12' W 123°55'5 9.9
2017-Oct-09 22:30N 46°15' W 124°01'510.7
2017-Oct-09 22:01N 46°16' W 124°08'510.4
2017-Oct-09 21:30N 46°19' W 124°14'5 9.9
2017-Oct-09 21:01N 46°23' W 124°19'5 9.6
2017-Oct-09 20:30N 46°27' W 124°24'5 9.8
2017-Oct-09 20:00N 46°30' W 124°28'5 9.4
2017-Oct-09 19:31N 46°34' W 124°33'5 9.1
2017-Oct-09 19:00N 46°37' W 124°38'4 8.9
2017-Oct-09 18:30N 46°40' W 124°42'4 7.7
2017-Oct-09 18:00N 46°43' W 124°46'4 7.1
2017-Oct-09 17:30N 46°46' W 124°49'1 1.6
2017-Oct-09 17:00N 46°45' W 124°50'2 3.3
2017-Oct-09 16:30N 46°44' W 124°48'2 3.4
2017-Oct-09 16:00N 46°42' W 124°47'2 3.4
2017-Oct-09 15:30N 46°41' W 124°46'2 3.5
2017-Oct-09 15:00N 46°40' W 124°44'0 0.6
2017-Oct-09 14:30N 46°40' W 124°43'2 3.1
2017-Oct-09 14:00N 46°39' W 124°45'2 3.2
2017-Oct-09 13:30N 46°40' W 124°43'2 4.4
2017-Oct-09 13:00N 46°40' W 124°40'2 4.3
2017-Oct-09 12:30N 46°40' W 124°37'2 3.4
2017-Oct-09 12:00N 46°40' W 124°35'2 3.9
2017-Oct-09 11:30N 46°40' W 124°37'2 3.9
2017-Oct-09 10:59N 46°41' W 124°40'3 4.0
2017-Oct-09 10:13N 46°41' W 124°45'1 3.8
2017-Oct-09 10:00N 46°41' W 124°46'2 3.5
2017-Oct-09 09:30N 46°41' W 124°43'2 3.5
2017-Oct-09 09:00N 46°41' W 124°41'2 3.4
2017-Oct-09 08:30N 46°40' W 124°38'2 3.5
2017-Oct-09 08:00N 46°40' W 124°36'2 3.4
2017-Oct-09 07:30N 46°40' W 124°33'2 3.7
2017-Oct-09 07:00N 46°40' W 124°36'2 3.8
2017-Oct-09 06:30N 46°41' W 124°39'2 4.0
2017-Oct-09 06:00N 46°41' W 124°42'2 3.7
2017-Oct-09 05:30N 46°41' W 124°44'2 3.7
2017-Oct-09 05:00N 46°41' W 124°47'1 3.0
2017-Oct-09 04:30N 46°41' W 124°49'1 2.7
2017-Oct-09 04:00N 46°41' W 124°48'0 0.7
2017-Oct-09 03:30N 46°40' W 124°47'1 1.4
2017-Oct-09 03:00N 46°40' W 124°46'1 3.0
2017-Oct-09 02:30N 46°39' W 124°44'2 3.0
2017-Oct-09 02:00N 46°39' W 124°43'1 2.6
2017-Oct-09 01:31N 46°38' W 124°41'2 3.2
2017-Oct-09 00:49N 46°36' W 124°39'1 3.7
2017-Oct-09 00:30N 46°37' W 124°40'1 2.6
2017-Oct-09 00:00N 46°36' W 124°38'1 1.6
2017-Oct-08 23:31N 46°36' W 124°38'0 0.9
2017-Oct-08 23:01N 46°36' W 124°37'6 8.0
2017-Oct-08 22:16N 46°33' W 124°30'2 6.1
2017-Oct-08 22:00N 46°32' W 124°31'4 7.6
2017-Oct-08 21:31N 46°28' W 124°31'4 7.2
2017-Oct-08 21:00N 46°25' W 124°33'4 7.0
2017-Oct-08 20:30N 46°21' W 124°33'5 9.3
2017-Oct-08 20:01N 46°17' W 124°30'4 8.0
2017-Oct-08 19:31N 46°17' W 124°24'5 9.3
2017-Oct-08 19:00N 46°15' W 124°17'4 8.2
2017-Oct-08 18:30N 46°15' W 124°12'6 7.6
2017-Oct-08 17:46N 46°15' W 124°04'2 8.2
2017-Oct-08 17:30N 46°15' W 124°00'510.0
2017-Oct-08 17:00N 46°12' W 123°55'2 4.5
2017-Oct-08 16:30N 46°11' W 123°52'0 0.0
2017-Oct-08 16:01N 46°11' W 123°52'0 0.0
2017-Oct-08 15:31N 46°11' W 123°52'0 0.0
2017-Oct-08 14:47N 46°11' W 123°52'0 0.0
2017-Oct-08 14:25N 46°11' W 123°52'0 0.0
2017-Oct-08 14:01N 46°11' W 123°52'0 0.0
2017-Oct-08 13:31N 46°11' W 123°52'0 0.0
2017-Oct-08 13:01N 46°11' W 123°52'0 0.0
2017-Oct-08 12:31N 46°11' W 123°52'0 0.0
2017-Oct-08 12:00N 46°11' W 123°52'0 0.0
2017-Oct-08 11:31N 46°11' W 123°52'0 0.0
2017-Oct-08 11:01N 46°11' W 123°52'0 0.0
2017-Oct-08 10:31N 46°11' W 123°52'0 0.0
2017-Oct-08 10:01N 46°11' W 123°52'0 0.0
2017-Oct-08 09:31N 46°11' W 123°52'0 0.0
2017-Oct-08 09:01N 46°11' W 123°52'0 0.1
2017-Oct-08 08:20N 46°11' W 123°52'0 0.1
2017-Oct-08 08:01N 46°11' W 123°52'0 0.0
2017-Oct-08 07:30N 46°11' W 123°52'0 0.0
2017-Oct-08 07:00N 46°11' W 123°52'0 0.7
2017-Oct-08 06:30N 46°11' W 123°52'4 8.1
2017-Oct-08 06:00N 46°13' W 123°58'4 8.6
2017-Oct-08 05:30N 46°15' W 124°03'3 7.0
2017-Oct-08 05:00N 46°15' W 124°08'4 7.2
2017-Oct-08 04:30N 46°17' W 124°12'5 9.2
2017-Oct-08 04:00N 46°22' W 124°14'6 9.2
2017-Oct-08 03:19N 46°28' W 124°17'3 8.7
2017-Oct-08 03:00N 46°30' W 124°18'4 8.5
2017-Oct-08 02:30N 46°34' W 124°20'4 8.4
2017-Oct-08 02:00N 46°38' W 124°22'4 8.2
2017-Oct-08 01:30N 46°42' W 124°23'4 8.2
2017-Oct-08 00:58N 46°46' W 124°26'4 8.3
2017-Oct-08 00:30N 46°50' W 124°27'4 7.9
2017-Oct-08 00:00N 46°54' W 124°29'4 7.4
2017-Oct-07 23:31N 46°57' W 124°32'4 7.3
2017-Oct-07 23:00N 47°00' W 124°33'4 7.3
2017-Oct-07 22:30N 47°04' W 124°36'11 1.0
2017-Oct-07 11:23N 47°11' W 124°48'2 6.3
2017-Oct-07 11:00N 47°09' W 124°51'8 4.7
2017-Oct-07 09:24N 47°01' W 124°50'2 3.9
2017-Oct-07 09:00N 47°00' W 124°51'3 2.3
2017-Oct-07 07:31N 46°57' W 124°52'0 3.3
2017-Oct-07 07:29N 46°57' W 124°52'2 3.1
2017-Oct-07 06:46N 46°55' W 124°50'1 2.6
2017-Oct-07 06:30N 46°55' W 124°49'1 2.4
2017-Oct-07 06:00N 46°54' W 124°49'2 4.4
2017-Oct-07 05:30N 46°52' W 124°51'  

Dump ship's entire track history